Terminal Aerodrome Forecast
Issued by NWS Albany, NY

Home | Current Version | Previous Version | Text Only | Print | Product List | Glossary On
Versions: 1 2 3 4 5 6 7 8 9 10 11 12 13
000
FTUS41 KALY 240538
TAFGFL
TAF
KGFL 240538Z 2406/2506 VRB05KT P6SM SKC
     FM241500 19007KT P6SM BKN250
     FM250200 18009KT P6SM VCSH OVC080
     FM250500 VRB05KT 5SM -RA BR OVC040=

USA.gov is the U.S. government's official web portal to all federal, state and local government web resources and services.